Cimbria — V2CC7 — position and weather

sailwx.info

Track history (hours):
 
Tides and Currents Weather Stations Pressure Air Temp Water Temp Dewpoint Dewpoint Depression Visibility Wind Speed Wind Dir Waves Ship Positions

Cimbria

Last reported at 2014-Oct-02 12:33 UTC. Time now 2014-Oct-02 12:39 UTC.
Position N 54°32' E 011°20'.

Length 109 m; draft 4.3 m.

Type: Cargo ship. MMSI: 304981000.

Date/timePositionNaut miles runAvg speedWind from/ knotsBaromVisibWave heightAir tempDewpointWater temp
2014-Oct-02 12:33N 54°32' E 011°20'1211.7
2014-Oct-02 11:33N 54°35' E 011°01'1512.7
2014-Oct-02 10:23N 54°33' E 010°35'1011.9
2014-Oct-02 09:33N 54°30' E 010°20'10 9.7
2014-Oct-02 08:33N 54°22' E 010°10'1 1.4
2014-Oct-02 07:33N 54°22' E 010°08'8 7.8
2014-Oct-02 06:33N 54°21' E 009°54'7 7.0
2014-Oct-02 05:33N 54°19' E 009°43'8 7.8
2014-Oct-02 04:33N 54°13' E 009°35'15 4.9
2014-Oct-02 01:33N 54°02' E 009°18'8 7.7
2014-Oct-02 00:33N 53°55' E 009°12'3 2.8
2014-Oct-01 23:34N 53°53' E 009°08'6 6.4
2014-Oct-01 22:33N 53°51' E 008°58'8 7.9
2014-Oct-01 21:33N 53°51' E 008°45'8 7.7
2014-Oct-01 20:34N 53°57' E 008°37'1010.1
2014-Oct-01 19:33N 53°59' E 008°20'1110.8
2014-Oct-01 18:33N 53°59' E 008°01'1111.0
2014-Oct-01 17:33N 53°56' E 007°43'1211.5
2014-Oct-01 16:29N 53°53' E 007°23'4912.1
2014-Oct-01 12:25N 53°40' E 006°02'1113.2
2014-Oct-01 11:33N 53°37' E 005°44'1313.3
2014-Oct-01 10:33N 53°33' E 005°23'1313.4
2014-Oct-01 09:33N 53°29' E 005°01'1413.8
2014-Oct-01 08:33N 53°23' E 004°41'4614.0
2014-Oct-01 05:14N 52°41' E 004°05'1013.1
2014-Oct-01 04:26N 52°32' E 003°56'1112.6
2014-Oct-01 03:33N 52°22' E 003°52'1212.1
2014-Oct-01 02:33N 52°10' E 003°54'9 9.3
2014-Oct-01 01:33N 52°01' E 003°60'1312.8
2014-Oct-01 00:33N 51°54' E 004°17'9 8.6
2014-Sep-30 23:34N 51°50' E 004°29'6 5.7
2014-Sep-30 22:31N 51°48' E 004°38'0 0.0
2014-Sep-30 21:25N 51°48' E 004°38'0 0.0
2014-Sep-30 20:31N 51°48' E 004°38'0 0.0
2014-Sep-30 19:34N 51°48' E 004°38'0 0.0
2014-Sep-30 18:33N 51°48' E 004°38'0 0.0
2014-Sep-30 17:30N 51°48' E 004°38'0 0.0
2014-Sep-30 16:33N 51°48' E 004°38'0 0.0
2014-Sep-30 15:31N 51°48' E 004°38'0 0.0
2014-Sep-30 14:34N 51°48' E 004°38'0 0.0
2014-Sep-30 13:32N 51°48' E 004°38'0 0.0
2014-Sep-30 12:32N 51°48' E 004°38'0 0.0
2014-Sep-30 11:31N 51°48' E 004°38'0 0.0
2014-Sep-30 10:31N 51°48' E 004°38'0 0.0
2014-Sep-30 09:31N 51°48' E 004°38'0 0.0
2014-Sep-30 08:31N 51°48' E 004°38'0 0.0
2014-Sep-30 07:31N 51°48' E 004°38'0 0.5
2014-Sep-30 06:34N 51°48' E 004°38'9 8.7
2014-Sep-30 05:33N 51°51' E 004°24'8 8.5
2014-Sep-30 04:33N 51°56' E 004°13'1111.0
2014-Sep-30 03:33N 52°00' E 003°57'1310.1
2014-Sep-30 02:14N 51°57' E 003°36'8 9.6
2014-Sep-30 01:22N 51°54' E 003°23'24 8.6
2014-Sep-29 22:32N 51°47' E 002°45'13 8.5
2014-Sep-29 21:03N 51°40' E 002°29'5 9.5
2014-Sep-29 20:31N 51°36' E 002°24'10 9.9
2014-Sep-29 19:33N 51°28' E 002°14'1010.3
2014-Sep-29 18:33N 51°19' E 002°07'1010.4
2014-Sep-29 17:33N 51°11' E 001°56'1211.5
2014-Sep-29 16:33N 51°04' E 001°41'4312.4
2014-Sep-29 13:03N 50°30' E 000°59'612.1
2014-Sep-29 12:32N 50°29' E 000°49'1212.5
2014-Sep-29 11:33N 50°26' E 000°30'77 9.7
2014-Sep-29 03:33N 50°04' W 001°26'8 8.0
2014-Sep-29 02:33N 50°02' W 001°38'13 9.7
2014-Sep-29 01:15N 49°58' W 001°57'811.3
2014-Sep-29 00:33N 49°56' W 002°09'11611.6
2014-Sep-28 14:33N 49°04' W 004°49'26 8.8
2014-Sep-28 11:34N 48°51' W 005°23'9 8.6
2014-Sep-28 10:34N 48°46' W 005°35'47 9.4
2014-Sep-28 05:33N 48°05' W 006°08'1211.2
2014-Sep-28 04:26N 47°53' W 006°17'1011.0
2014-Sep-28 03:33N 47°45' W 006°24'  
2014-Sep-25 16:19N 38°49' W 009°50'7 9.0
2014-Sep-25 15:32N 38°42' W 009°50'19 9.1
2014-Sep-25 13:27N 38°23' W 009°45'10 9.2
2014-Sep-25 12:22N 38°14' W 009°42'8 9.1
2014-Sep-25 11:29N 38°06' W 009°39'9 9.3
2014-Sep-25 10:33N 37°57' W 009°37'9 9.1
2014-Sep-25 09:33N 37°48' W 009°34'9 9.4
2014-Sep-25 08:33N 37°39' W 009°32'10 9.7
2014-Sep-25 07:33N 37°30' W 009°29'59 8.4
2014-Sep-25 00:33N 36°40' W 008°50'10 9.5
2014-Sep-24 23:29N 36°37' W 008°38'10 9.5
2014-Sep-24 22:25N 36°34' W 008°26'154 9.1
2014-Sep-24 05:33N 35°59' W 005°19'5 4.7
2014-Sep-24 04:31N 35°54' W 005°18'0 0.0
2014-Sep-24 03:31N 35°54' W 005°18'0 0.0
2014-Sep-24 02:31N 35°54' W 005°18'1 0.8
2014-Sep-24 01:34N 35°54' W 005°18'2 1.5
2014-Sep-24 00:34N 35°56' W 005°18'  
Track history (hours):
 
Tides and Currents Weather Stations Pressure Air Temp Water Temp Dewpoint Dewpoint Depression Visibility Wind Speed Wind Dir Waves Ship Positions

Cimbria

Last reported at 2014-Oct-02 12:33 UTC. Time now 2014-Oct-02 12:39 UTC.
Position N 54°32' E 011°20'.

Length 109 m; draft 4.3 m.

Type: Cargo ship. MMSI: 304981000.

Date/timePositionNaut miles runAvg speedWind from/ knotsBaromVisibWave heightAir tempDewpointWater temp
2014-Oct-02 12:33N 54°32' E 011°20'1211.7
2014-Oct-02 11:33N 54°35' E 011°01'1512.7
2014-Oct-02 10:23N 54°33' E 010°35'1011.9
2014-Oct-02 09:33N 54°30' E 010°20'10 9.7
2014-Oct-02 08:33N 54°22' E 010°10'1 1.4
2014-Oct-02 07:33N 54°22' E 010°08'8 7.8
2014-Oct-02 06:33N 54°21' E 009°54'7 7.0
2014-Oct-02 05:33N 54°19' E 009°43'8 7.8
2014-Oct-02 04:33N 54°13' E 009°35'15 4.9
2014-Oct-02 01:33N 54°02' E 009°18'8 7.7
2014-Oct-02 00:33N 53°55' E 009°12'3 2.8
2014-Oct-01 23:34N 53°53' E 009°08'6 6.4
2014-Oct-01 22:33N 53°51' E 008°58'8 7.9
2014-Oct-01 21:33N 53°51' E 008°45'8 7.7
2014-Oct-01 20:34N 53°57' E 008°37'1010.1
2014-Oct-01 19:33N 53°59' E 008°20'1110.8
2014-Oct-01 18:33N 53°59' E 008°01'1111.0
2014-Oct-01 17:33N 53°56' E 007°43'1211.5
2014-Oct-01 16:29N 53°53' E 007°23'4912.1
2014-Oct-01 12:25N 53°40' E 006°02'1113.2
2014-Oct-01 11:33N 53°37' E 005°44'1313.3
2014-Oct-01 10:33N 53°33' E 005°23'1313.4
2014-Oct-01 09:33N 53°29' E 005°01'1413.8
2014-Oct-01 08:33N 53°23' E 004°41'4614.0
2014-Oct-01 05:14N 52°41' E 004°05'1013.1
2014-Oct-01 04:26N 52°32' E 003°56'1112.6
2014-Oct-01 03:33N 52°22' E 003°52'1212.1
2014-Oct-01 02:33N 52°10' E 003°54'9 9.3
2014-Oct-01 01:33N 52°01' E 003°60'1312.8
2014-Oct-01 00:33N 51°54' E 004°17'9 8.6
2014-Sep-30 23:34N 51°50' E 004°29'6 5.7
2014-Sep-30 22:31N 51°48' E 004°38'0 0.0
2014-Sep-30 21:25N 51°48' E 004°38'0 0.0
2014-Sep-30 20:31N 51°48' E 004°38'0 0.0
2014-Sep-30 19:34N 51°48' E 004°38'0 0.0
2014-Sep-30 18:33N 51°48' E 004°38'0 0.0
2014-Sep-30 17:30N 51°48' E 004°38'0 0.0
2014-Sep-30 16:33N 51°48' E 004°38'0 0.0
2014-Sep-30 15:31N 51°48' E 004°38'0 0.0
2014-Sep-30 14:34N 51°48' E 004°38'0 0.0
2014-Sep-30 13:32N 51°48' E 004°38'0 0.0
2014-Sep-30 12:32N 51°48' E 004°38'0 0.0
2014-Sep-30 11:31N 51°48' E 004°38'0 0.0
2014-Sep-30 10:31N 51°48' E 004°38'0 0.0
2014-Sep-30 09:31N 51°48' E 004°38'0 0.0
2014-Sep-30 08:31N 51°48' E 004°38'0 0.0
2014-Sep-30 07:31N 51°48' E 004°38'0 0.5
2014-Sep-30 06:34N 51°48' E 004°38'9 8.7
2014-Sep-30 05:33N 51°51' E 004°24'8 8.5
2014-Sep-30 04:33N 51°56' E 004°13'1111.0
2014-Sep-30 03:33N 52°00' E 003°57'1310.1
2014-Sep-30 02:14N 51°57' E 003°36'8 9.6
2014-Sep-30 01:22N 51°54' E 003°23'24 8.6
2014-Sep-29 22:32N 51°47' E 002°45'13 8.5
2014-Sep-29 21:03N 51°40' E 002°29'5 9.5
2014-Sep-29 20:31N 51°36' E 002°24'10 9.9
2014-Sep-29 19:33N 51°28' E 002°14'1010.3
2014-Sep-29 18:33N 51°19' E 002°07'1010.4
2014-Sep-29 17:33N 51°11' E 001°56'1211.5
2014-Sep-29 16:33N 51°04' E 001°41'4312.4
2014-Sep-29 13:03N 50°30' E 000°59'612.1
2014-Sep-29 12:32N 50°29' E 000°49'1212.5
2014-Sep-29 11:33N 50°26' E 000°30'77 9.7
2014-Sep-29 03:33N 50°04' W 001°26'8 8.0
2014-Sep-29 02:33N 50°02' W 001°38'13 9.7
2014-Sep-29 01:15N 49°58' W 001°57'811.3
2014-Sep-29 00:33N 49°56' W 002°09'11611.6
2014-Sep-28 14:33N 49°04' W 004°49'26 8.8
2014-Sep-28 11:34N 48°51' W 005°23'9 8.6
2014-Sep-28 10:34N 48°46' W 005°35'47 9.4
2014-Sep-28 05:33N 48°05' W 006°08'1211.2
2014-Sep-28 04:26N 47°53' W 006°17'1011.0
2014-Sep-28 03:33N 47°45' W 006°24'  
2014-Sep-25 16:19N 38°49' W 009°50'7 9.0
2014-Sep-25 15:32N 38°42' W 009°50'19 9.1
2014-Sep-25 13:27N 38°23' W 009°45'10 9.2
2014-Sep-25 12:22N 38°14' W 009°42'8 9.1
2014-Sep-25 11:29N 38°06' W 009°39'9 9.3
2014-Sep-25 10:33N 37°57' W 009°37'9 9.1
2014-Sep-25 09:33N 37°48' W 009°34'9 9.4
2014-Sep-25 08:33N 37°39' W 009°32'10 9.7
2014-Sep-25 07:33N 37°30' W 009°29'59 8.4
2014-Sep-25 00:33N 36°40' W 008°50'10 9.5
2014-Sep-24 23:29N 36°37' W 008°38'10 9.5
2014-Sep-24 22:25N 36°34' W 008°26'154 9.1
2014-Sep-24 05:33N 35°59' W 005°19'5 4.7
2014-Sep-24 04:31N 35°54' W 005°18'0 0.0
2014-Sep-24 03:31N 35°54' W 005°18'0 0.0
2014-Sep-24 02:31N 35°54' W 005°18'1 0.8
2014-Sep-24 01:34N 35°54' W 005°18'2 1.5
2014-Sep-24 00:34N 35°56' W 005°18'  

Dump ship's entire track history